sensor_id;sensor_type;location;lat;lon;timestamp;P1;durP1;ratioP1;P2;durP2;ratioP2
40793;SDS011;26502;51.886;15.604;2023-07-30T00:03:14;8.50;;;4.20;;
40793;SDS011;26502;51.886;15.604;2023-07-30T00:08:18;5.90;;;3.30;;
40793;SDS011;26502;51.886;15.604;2023-07-30T00:13:21;6.20;;;3.60;;
40793;SDS011;26502;51.886;15.604;2023-07-30T00:18:25;5.20;;;3.30;;
40793;SDS011;26502;51.886;15.604;2023-07-30T00:23:28;7.20;;;3.10;;
40793;SDS011;26502;51.886;15.604;2023-07-30T00:28:31;5.60;;;3.60;;
40793;SDS011;26502;51.886;15.604;2023-07-30T00:33:35;6.10;;;3.50;;
40793;SDS011;26502;51.886;15.604;2023-07-30T00:38:38;5.50;;;3.20;;
40793;SDS011;26502;51.886;15.604;2023-07-30T00:43:42;4.90;;;3.90;;
40793;SDS011;26502;51.886;15.604;2023-07-30T00:48:45;8.10;;;3.80;;
40793;SDS011;26502;51.886;15.604;2023-07-30T00:53:48;7.70;;;3.70;;
40793;SDS011;26502;51.886;15.604;2023-07-30T00:58:52;6.40;;;3.80;;
40793;SDS011;26502;51.886;15.604;2023-07-30T01:03:56;5.40;;;4.00;;
40793;SDS011;26502;51.886;15.604;2023-07-30T01:09:00;6.40;;;4.50;;
40793;SDS011;26502;51.886;15.604;2023-07-30T01:14:03;7.70;;;4.30;;
40793;SDS011;26502;51.886;15.604;2023-07-30T01:19:08;6.40;;;3.90;;
40793;SDS011;26502;51.886;15.604;2023-07-30T01:24:12;4.30;;;3.90;;
40793;SDS011;26502;51.886;15.604;2023-07-30T01:29:16;9.70;;;4.70;;
40793;SDS011;26502;51.886;15.604;2023-07-30T01:34:25;7.40;;;5.00;;
40793;SDS011;26502;51.886;15.604;2023-07-30T01:39:30;21.10;;;5.00;;
40793;SDS011;26502;51.886;15.604;2023-07-30T01:44:34;5.70;;;5.00;;
40793;SDS011;26502;51.886;15.604;2023-07-30T01:49:37;13.60;;;5.30;;
40793;SDS011;26502;51.886;15.604;2023-07-30T01:54:41;4.40;;;4.00;;
40793;SDS011;26502;51.886;15.604;2023-07-30T01:59:44;5.30;;;4.10;;
40793;SDS011;26502;51.886;15.604;2023-07-30T02:04:48;4.10;;;3.60;;
40793;SDS011;26502;51.886;15.604;2023-07-30T02:09:51;5.60;;;3.70;;
40793;SDS011;26502;51.886;15.604;2023-07-30T02:14:55;8.10;;;4.20;;
40793;SDS011;26502;51.886;15.604;2023-07-30T02:19:58;6.50;;;3.70;;
40793;SDS011;26502;51.886;15.604;2023-07-30T02:25:01;3.90;;;3.60;;
40793;SDS011;26502;51.886;15.604;2023-07-30T02:30:06;5.70;;;3.70;;
40793;SDS011;26502;51.886;15.604;2023-07-30T02:35:10;9.70;;;3.40;;
40793;SDS011;26502;51.886;15.604;2023-07-30T02:40:14;3.70;;;3.30;;
40793;SDS011;26502;51.886;15.604;2023-07-30T02:45:17;3.40;;;3.10;;
40793;SDS011;26502;51.886;15.604;2023-07-30T02:50:20;10.90;;;3.30;;
40793;SDS011;26502;51.886;15.604;2023-07-30T02:55:24;11.80;;;3.00;;
40793;SDS011;26502;51.886;15.604;2023-07-30T03:00:27;8.00;;;3.10;;
40793;SDS011;26502;51.886;15.604;2023-07-30T03:05:31;14.80;;;3.30;;
40793;SDS011;26502;51.886;15.604;2023-07-30T03:10:34;5.60;;;3.60;;
40793;SDS011;26502;51.886;15.604;2023-07-30T03:15:39;12.00;;;3.60;;
40793;SDS011;26502;51.886;15.604;2023-07-30T03:20:42;5.10;;;3.70;;
40793;SDS011;26502;51.886;15.604;2023-07-30T03:25:46;8.20;;;3.20;;
40793;SDS011;26502;51.886;15.604;2023-07-30T03:30:49;6.00;;;3.60;;
40793;SDS011;26502;51.886;15.604;2023-07-30T03:35:53;6.10;;;3.60;;
40793;SDS011;26502;51.886;15.604;2023-07-30T03:40:57;4.10;;;3.70;;
40793;SDS011;26502;51.886;15.604;2023-07-30T03:46:00;5.30;;;3.70;;
40793;SDS011;26502;51.886;15.604;2023-07-30T03:51:04;4.70;;;3.60;;
40793;SDS011;26502;51.886;15.604;2023-07-30T03:56:09;4.20;;;3.80;;
40793;SDS011;26502;51.886;15.604;2023-07-30T04:01:12;3.80;;;3.50;;
40793;SDS011;26502;51.886;15.604;2023-07-30T04:06:16;4.00;;;3.30;;
40793;SDS011;26502;51.886;15.604;2023-07-30T04:11:19;4.70;;;3.30;;
40793;SDS011;26502;51.886;15.604;2023-07-30T04:16:22;4.70;;;3.90;;
40793;SDS011;26502;51.886;15.604;2023-07-30T04:21:26;5.00;;;3.30;;
40793;SDS011;26502;51.886;15.604;2023-07-30T04:26:29;5.30;;;3.80;;
40793;SDS011;26502;51.886;15.604;2023-07-30T04:31:32;5.60;;;3.80;;
40793;SDS011;26502;51.886;15.604;2023-07-30T04:36:36;3.80;;;3.50;;
40793;SDS011;26502;51.886;15.604;2023-07-30T04:41:41;8.10;;;4.50;;
40793;SDS011;26502;51.886;15.604;2023-07-30T04:46:44;5.80;;;4.70;;
40793;SDS011;26502;51.886;15.604;2023-07-30T04:51:47;6.10;;;4.40;;
40793;SDS011;26502;51.886;15.604;2023-07-30T04:56:52;7.10;;;5.30;;
40793;SDS011;26502;51.886;15.604;2023-07-30T05:01:55;6.80;;;5.00;;
40793;SDS011;26502;51.886;15.604;2023-07-30T05:06:59;9.70;;;5.10;;
40793;SDS011;26502;51.886;15.604;2023-07-30T05:12:03;5.50;;;4.90;;
40793;SDS011;26502;51.886;15.604;2023-07-30T05:17:07;5.60;;;4.80;;
40793;SDS011;26502;51.886;15.604;2023-07-30T05:22:10;5.30;;;4.20;;
40793;SDS011;26502;51.886;15.604;2023-07-30T05:27:13;7.80;;;4.10;;
40793;SDS011;26502;51.886;15.604;2023-07-30T05:32:17;4.40;;;4.00;;
40793;SDS011;26502;51.886;15.604;2023-07-30T05:37:20;5.30;;;4.00;;
40793;SDS011;26502;51.886;15.604;2023-07-30T05:42:25;6.10;;;3.70;;
40793;SDS011;26502;51.886;15.604;2023-07-30T05:47:28;6.40;;;3.60;;
40793;SDS011;26502;51.886;15.604;2023-07-30T05:52:31;7.70;;;4.40;;
40793;SDS011;26502;51.886;15.604;2023-07-30T05:57:34;4.30;;;3.40;;
40793;SDS011;26502;51.886;15.604;2023-07-30T06:02:38;3.80;;;3.30;;
40793;SDS011;26502;51.886;15.604;2023-07-30T06:07:42;7.20;;;3.70;;
40793;SDS011;26502;51.886;15.604;2023-07-30T06:12:45;4.50;;;3.50;;
40793;SDS011;26502;51.886;15.604;2023-07-30T06:17:48;6.10;;;3.40;;
40793;SDS011;26502;51.886;15.604;2023-07-30T06:22:51;4.70;;;3.00;;
40793;SDS011;26502;51.886;15.604;2023-07-30T06:27:55;7.80;;;3.60;;
40793;SDS011;26502;51.886;15.604;2023-07-30T06:33:00;6.00;;;3.40;;
40793;SDS011;26502;51.886;15.604;2023-07-30T06:38:05;4.50;;;3.50;;
40793;SDS011;26502;51.886;15.604;2023-07-30T06:43:11;6.20;;;3.10;;
40793;SDS011;26502;51.886;15.604;2023-07-30T06:48:14;6.30;;;3.40;;
40793;SDS011;26502;51.886;15.604;2023-07-30T06:53:17;3.90;;;2.80;;
40793;SDS011;26502;51.886;15.604;2023-07-30T06:58:21;5.00;;;2.90;;
40793;SDS011;26502;51.886;15.604;2023-07-30T07:03:24;5.80;;;2.60;;
40793;SDS011;26502;51.886;15.604;2023-07-30T07:08:28;6.80;;;3.30;;
40793;SDS011;26502;51.886;15.604;2023-07-30T07:13:31;4.30;;;2.70;;
40793;SDS011;26502;51.886;15.604;2023-07-30T07:18:35;5.10;;;2.60;;
40793;SDS011;26502;51.886;15.604;2023-07-30T07:23:38;3.20;;;2.90;;
40793;SDS011;26502;51.886;15.604;2023-07-30T07:28:41;5.80;;;3.20;;
40793;SDS011;26502;51.886;15.604;2023-07-30T07:33:45;3.90;;;2.60;;
40793;SDS011;26502;51.886;15.604;2023-07-30T07:38:48;3.30;;;2.90;;
40793;SDS011;26502;51.886;15.604;2023-07-30T07:43:52;8.50;;;3.10;;
40793;SDS011;26502;51.886;15.604;2023-07-30T07:48:55;3.40;;;2.60;;
40793;SDS011;26502;51.886;15.604;2023-07-30T07:53:59;3.10;;;2.60;;
40793;SDS011;26502;51.886;15.604;2023-07-30T07:59:02;5.20;;;2.30;;
40793;SDS011;26502;51.886;15.604;2023-07-30T08:04:08;9.50;;;2.40;;
40793;SDS011;26502;51.886;15.604;2023-07-30T08:09:11;3.60;;;2.20;;
40793;SDS011;26502;51.886;15.604;2023-07-30T08:14:14;2.40;;;2.10;;
40793;SDS011;26502;51.886;15.604;2023-07-30T08:19:18;1.90;;;1.70;;
40793;SDS011;26502;51.886;15.604;2023-07-30T08:24:21;3.50;;;1.80;;
40793;SDS011;26502;51.886;15.604;2023-07-30T08:29:25;2.50;;;2.30;;
40793;SDS011;26502;51.886;15.604;2023-07-30T08:34:29;5.10;;;2.40;;
40793;SDS011;26502;51.886;15.604;2023-07-30T08:39:32;4.10;;;2.20;;
40793;SDS011;26502;51.886;15.604;2023-07-30T08:44:35;2.00;;;1.80;;
40793;SDS011;26502;51.886;15.604;2023-07-30T08:49:39;3.60;;;2.30;;
40793;SDS011;26502;51.886;15.604;2023-07-30T08:54:42;2.80;;;2.00;;
40793;SDS011;26502;51.886;15.604;2023-07-30T08:59:49;3.20;;;2.00;;
40793;SDS011;26502;51.886;15.604;2023-07-30T09:04:57;2.90;;;1.70;;
40793;SDS011;26502;51.886;15.604;2023-07-30T09:10:02;2.20;;;1.70;;
40793;SDS011;26502;51.886;15.604;2023-07-30T09:15:07;1.60;;;1.50;;
40793;SDS011;26502;51.886;15.604;2023-07-30T09:20:12;3.10;;;1.70;;
40793;SDS011;26502;51.886;15.604;2023-07-30T09:25:17;2.10;;;1.70;;
40793;SDS011;26502;51.886;15.604;2023-07-30T09:30:22;2.40;;;1.60;;
40793;SDS011;26502;51.886;15.604;2023-07-30T09:35:27;2.30;;;2.00;;
40793;SDS011;26502;51.886;15.604;2023-07-30T09:40:33;2.00;;;1.90;;
40793;SDS011;26502;51.886;15.604;2023-07-30T09:45:38;3.40;;;1.70;;
40793;SDS011;26502;51.886;15.604;2023-07-30T09:50:41;1.90;;;1.60;;
40793;SDS011;26502;51.886;15.604;2023-07-30T09:55:46;4.90;;;1.80;;
40793;SDS011;26502;51.886;15.604;2023-07-30T10:00:50;4.40;;;1.50;;
40793;SDS011;26502;51.886;15.604;2023-07-30T10:05:55;3.10;;;1.50;;
40793;SDS011;26502;51.886;15.604;2023-07-30T10:11:05;5.30;;;1.70;;
40793;SDS011;26502;51.886;15.604;2023-07-30T10:16:11;2.90;;;1.60;;
40793;SDS011;26502;51.886;15.604;2023-07-30T10:21:22;4.10;;;1.60;;
40793;SDS011;26502;51.886;15.604;2023-07-30T10:26:27;2.60;;;1.50;;
40793;SDS011;26502;51.886;15.604;2023-07-30T10:31:38;3.20;;;1.50;;
40793;SDS011;26502;51.886;15.604;2023-07-30T10:36:43;2.10;;;1.40;;
40793;SDS011;26502;51.886;15.604;2023-07-30T10:41:49;4.30;;;1.70;;
40793;SDS011;26502;51.886;15.604;2023-07-30T10:46:54;2.20;;;1.60;;
40793;SDS011;26502;51.886;15.604;2023-07-30T10:51:58;2.70;;;1.60;;
40793;SDS011;26502;51.886;15.604;2023-07-30T10:57:01;1.90;;;1.70;;
40793;SDS011;26502;51.886;15.604;2023-07-30T11:02:06;1.80;;;1.70;;
40793;SDS011;26502;51.886;15.604;2023-07-30T11:07:10;4.10;;;2.10;;
40793;SDS011;26502;51.886;15.604;2023-07-30T11:12:20;2.10;;;1.60;;
40793;SDS011;26502;51.886;15.604;2023-07-30T11:17:24;1.90;;;1.70;;
40793;SDS011;26502;51.886;15.604;2023-07-30T11:22:31;2.10;;;2.00;;
40793;SDS011;26502;51.886;15.604;2023-07-30T11:27:45;2.60;;;1.80;;
40793;SDS011;26502;51.886;15.604;2023-07-30T11:32:48;4.90;;;1.90;;
40793;SDS011;26502;51.886;15.604;2023-07-30T11:37:52;2.00;;;1.40;;
40793;SDS011;26502;51.886;15.604;2023-07-30T11:42:55;5.40;;;1.90;;
40793;SDS011;26502;51.886;15.604;2023-07-30T11:48:06;5.40;;;1.80;;
40793;SDS011;26502;51.886;15.604;2023-07-30T11:53:10;2.70;;;2.10;;
40793;SDS011;26502;51.886;15.604;2023-07-30T11:58:14;2.80;;;1.60;;
40793;SDS011;26502;51.886;15.604;2023-07-30T12:03:17;1.70;;;1.60;;
40793;SDS011;26502;51.886;15.604;2023-07-30T12:08:25;1.70;;;1.60;;
40793;SDS011;26502;51.886;15.604;2023-07-30T12:13:29;1.60;;;1.50;;
40793;SDS011;26502;51.886;15.604;2023-07-30T12:18:32;3.10;;;1.60;;
40793;SDS011;26502;51.886;15.604;2023-07-30T12:23:35;2.10;;;1.70;;
40793;SDS011;26502;51.886;15.604;2023-07-30T12:28:39;2.40;;;1.80;;
40793;SDS011;26502;51.886;15.604;2023-07-30T12:33:43;1.20;;;1.10;;
40793;SDS011;26502;51.886;15.604;2023-07-30T12:38:46;2.40;;;1.70;;
40793;SDS011;26502;51.886;15.604;2023-07-30T12:43:49;4.60;;;1.50;;
40793;SDS011;26502;51.886;15.604;2023-07-30T12:48:52;7.70;;;1.40;;
40793;SDS011;26502;51.886;15.604;2023-07-30T12:53:56;2.70;;;1.40;;
40793;SDS011;26502;51.886;15.604;2023-07-30T12:58:59;1.60;;;1.50;;
40793;SDS011;26502;51.886;15.604;2023-07-30T13:04:03;2.90;;;1.70;;
40793;SDS011;26502;51.886;15.604;2023-07-30T13:09:06;1.50;;;1.30;;
40793;SDS011;26502;51.886;15.604;2023-07-30T13:14:11;1.60;;;1.50;;
40793;SDS011;26502;51.886;15.604;2023-07-30T13:19:15;1.70;;;1.20;;
40793;SDS011;26502;51.886;15.604;2023-07-30T13:24:18;1.40;;;1.20;;
40793;SDS011;26502;51.886;15.604;2023-07-30T13:29:21;3.40;;;1.20;;
40793;SDS011;26502;51.886;15.604;2023-07-30T13:34:25;3.00;;;1.40;;
40793;SDS011;26502;51.886;15.604;2023-07-30T13:39:28;3.60;;;1.40;;
40793;SDS011;26502;51.886;15.604;2023-07-30T13:44:32;1.30;;;1.20;;
40793;SDS011;26502;51.886;15.604;2023-07-30T13:49:35;1.40;;;1.30;;
40793;SDS011;26502;51.886;15.604;2023-07-30T13:54:39;7.10;;;1.50;;
40793;SDS011;26502;51.886;15.604;2023-07-30T13:59:43;2.30;;;1.20;;
40793;SDS011;26502;51.886;15.604;2023-07-30T14:04:47;1.70;;;1.20;;
40793;SDS011;26502;51.886;15.604;2023-07-30T14:09:51;4.30;;;1.70;;
40793;SDS011;26502;51.886;15.604;2023-07-30T14:14:54;1.50;;;1.40;;
40793;SDS011;26502;51.886;15.604;2023-07-30T14:19:57;1.90;;;1.60;;
40793;SDS011;26502;51.886;15.604;2023-07-30T14:25:01;2.10;;;1.40;;
40793;SDS011;26502;51.886;15.604;2023-07-30T14:30:05;2.50;;;1.60;;
40793;SDS011;26502;51.886;15.604;2023-07-30T14:35:10;1.90;;;1.60;;
40793;SDS011;26502;51.886;15.604;2023-07-30T14:40:14;2.20;;;2.00;;
40793;SDS011;26502;51.886;15.604;2023-07-30T14:45:17;1.80;;;1.70;;
40793;SDS011;26502;51.886;15.604;2023-07-30T14:50:20;2.30;;;2.10;;
40793;SDS011;26502;51.886;15.604;2023-07-30T14:55:24;2.10;;;2.00;;
40793;SDS011;26502;51.886;15.604;2023-07-30T15:00:28;3.50;;;2.00;;
40793;SDS011;26502;51.886;15.604;2023-07-30T15:05:32;6.90;;;2.30;;
40793;SDS011;26502;51.886;15.604;2023-07-30T15:10:35;5.10;;;4.50;;
40793;SDS011;26502;51.886;15.604;2023-07-30T15:15:39;2.00;;;1.80;;
40793;SDS011;26502;51.886;15.604;2023-07-30T15:20:42;4.30;;;1.70;;
40793;SDS011;26502;51.886;15.604;2023-07-30T15:25:46;4.20;;;1.70;;
40793;SDS011;26502;51.886;15.604;2023-07-30T15:30:50;4.60;;;2.00;;
40793;SDS011;26502;51.886;15.604;2023-07-30T15:35:54;2.40;;;2.00;;
40793;SDS011;26502;51.886;15.604;2023-07-30T15:40:57;4.30;;;2.00;;
40793;SDS011;26502;51.886;15.604;2023-07-30T15:46:01;4.70;;;2.00;;
40793;SDS011;26502;51.886;15.604;2023-07-30T15:51:07;2.00;;;1.60;;
40793;SDS011;26502;51.886;15.604;2023-07-30T15:56:11;3.70;;;1.80;;
40793;SDS011;26502;51.886;15.604;2023-07-30T16:01:14;6.50;;;2.10;;
40793;SDS011;26502;51.886;15.604;2023-07-30T16:06:21;2.80;;;1.60;;
40793;SDS011;26502;51.886;15.604;2023-07-30T16:11:26;2.10;;;1.90;;
40793;SDS011;26502;51.886;15.604;2023-07-30T16:16:29;3.30;;;2.10;;
40793;SDS011;26502;51.886;15.604;2023-07-30T16:21:33;2.00;;;1.60;;
40793;SDS011;26502;51.886;15.604;2023-07-30T16:26:37;2.90;;;2.00;;
40793;SDS011;26502;51.886;15.604;2023-07-30T16:31:40;5.00;;;1.80;;
40793;SDS011;26502;51.886;15.604;2023-07-30T16:36:44;4.70;;;1.70;;
40793;SDS011;26502;51.886;15.604;2023-07-30T16:41:47;4.70;;;2.20;;
40793;SDS011;26502;51.886;15.604;2023-07-30T16:46:51;3.70;;;1.80;;
40793;SDS011;26502;51.886;15.604;2023-07-30T16:51:55;1.70;;;1.60;;
40793;SDS011;26502;51.886;15.604;2023-07-30T16:56:59;2.40;;;1.70;;
40793;SDS011;26502;51.886;15.604;2023-07-30T17:02:02;3.10;;;1.60;;
40793;SDS011;26502;51.886;15.604;2023-07-30T17:07:06;4.50;;;1.80;;
40793;SDS011;26502;51.886;15.604;2023-07-30T17:12:10;1.80;;;1.70;;
40793;SDS011;26502;51.886;15.604;2023-07-30T17:17:13;4.20;;;2.40;;
40793;SDS011;26502;51.886;15.604;2023-07-30T17:22:17;3.40;;;1.90;;
40793;SDS011;26502;51.886;15.604;2023-07-30T17:27:20;2.00;;;1.90;;
40793;SDS011;26502;51.886;15.604;2023-07-30T17:32:23;3.50;;;2.10;;
40793;SDS011;26502;51.886;15.604;2023-07-30T17:37:27;3.40;;;2.10;;
40793;SDS011;26502;51.886;15.604;2023-07-30T17:42:30;4.10;;;1.80;;
40793;SDS011;26502;51.886;15.604;2023-07-30T17:47:34;3.80;;;2.20;;
40793;SDS011;26502;51.886;15.604;2023-07-30T17:52:38;1.80;;;1.70;;
40793;SDS011;26502;51.886;15.604;2023-07-30T17:57:43;2.40;;;2.20;;
40793;SDS011;26502;51.886;15.604;2023-07-30T18:02:46;2.50;;;1.70;;
40793;SDS011;26502;51.886;15.604;2023-07-30T18:07:49;6.70;;;1.70;;
40793;SDS011;26502;51.886;15.604;2023-07-30T18:12:53;5.10;;;2.20;;
40793;SDS011;26502;51.886;15.604;2023-07-30T18:17:57;3.10;;;2.20;;
40793;SDS011;26502;51.886;15.604;2023-07-30T18:23:05;3.20;;;2.60;;
40793;SDS011;26502;51.886;15.604;2023-07-30T18:28:09;2.80;;;2.60;;
40793;SDS011;26502;51.886;15.604;2023-07-30T18:33:13;4.30;;;2.10;;
40793;SDS011;26502;51.886;15.604;2023-07-30T18:38:17;6.10;;;2.20;;
40793;SDS011;26502;51.886;15.604;2023-07-30T18:43:20;3.20;;;2.60;;
40793;SDS011;26502;51.886;15.604;2023-07-30T18:48:26;3.30;;;2.80;;
40793;SDS011;26502;51.886;15.604;2023-07-30T18:53:31;2.80;;;2.40;;
40793;SDS011;26502;51.886;15.604;2023-07-30T18:58:35;3.10;;;2.00;;
40793;SDS011;26502;51.886;15.604;2023-07-30T19:03:40;2.80;;;2.60;;
40793;SDS011;26502;51.886;15.604;2023-07-30T19:08:45;6.50;;;2.50;;
40793;SDS011;26502;51.886;15.604;2023-07-30T19:13:49;2.70;;;2.50;;
40793;SDS011;26502;51.886;15.604;2023-07-30T19:18:52;3.50;;;2.80;;
40793;SDS011;26502;51.886;15.604;2023-07-30T19:23:56;4.60;;;3.00;;
40793;SDS011;26502;51.886;15.604;2023-07-30T19:29:00;5.40;;;2.60;;
40793;SDS011;26502;51.886;15.604;2023-07-30T19:34:08;4.70;;;2.70;;
40793;SDS011;26502;51.886;15.604;2023-07-30T19:39:12;6.70;;;2.50;;
40793;SDS011;26502;51.886;15.604;2023-07-30T19:44:16;3.20;;;2.30;;
40793;SDS011;26502;51.886;15.604;2023-07-30T19:49:21;2.20;;;1.90;;
40793;SDS011;26502;51.886;15.604;2023-07-30T19:54:25;3.80;;;1.80;;
40793;SDS011;26502;51.886;15.604;2023-07-30T19:59:28;3.10;;;1.90;;
40793;SDS011;26502;51.886;15.604;2023-07-30T20:04:33;2.80;;;1.90;;
40793;SDS011;26502;51.886;15.604;2023-07-30T20:09:38;3.90;;;2.50;;
40793;SDS011;26502;51.886;15.604;2023-07-30T20:14:43;2.60;;;2.00;;
40793;SDS011;26502;51.886;15.604;2023-07-30T20:19:47;3.10;;;2.20;;
40793;SDS011;26502;51.886;15.604;2023-07-30T20:24:50;5.10;;;1.80;;
40793;SDS011;26502;51.886;15.604;2023-07-30T20:29:55;3.70;;;2.10;;
40793;SDS011;26502;51.886;15.604;2023-07-30T20:34:59;2.70;;;1.80;;
40793;SDS011;26502;51.886;15.604;2023-07-30T20:40:05;4.00;;;1.60;;
40793;SDS011;26502;51.886;15.604;2023-07-30T20:45:11;7.70;;;1.80;;
40793;SDS011;26502;51.886;15.604;2023-07-30T20:50:16;3.30;;;2.00;;
40793;SDS011;26502;51.886;15.604;2023-07-30T20:55:20;5.80;;;1.70;;
40793;SDS011;26502;51.886;15.604;2023-07-30T21:00:24;2.90;;;1.60;;
40793;SDS011;26502;51.886;15.604;2023-07-30T21:05:27;3.80;;;2.00;;
40793;SDS011;26502;51.886;15.604;2023-07-30T21:10:31;2.70;;;1.40;;
40793;SDS011;26502;51.886;15.604;2023-07-30T21:15:34;2.90;;;1.60;;
40793;SDS011;26502;51.886;15.604;2023-07-30T21:20:38;3.10;;;1.50;;
40793;SDS011;26502;51.886;15.604;2023-07-30T21:25:41;2.60;;;2.00;;
40793;SDS011;26502;51.886;15.604;2023-07-30T21:30:45;3.40;;;2.40;;
40793;SDS011;26502;51.886;15.604;2023-07-30T21:35:48;2.40;;;1.70;;
40793;SDS011;26502;51.886;15.604;2023-07-30T21:40:51;4.00;;;1.90;;
40793;SDS011;26502;51.886;15.604;2023-07-30T21:45:55;3.40;;;2.00;;
40793;SDS011;26502;51.886;15.604;2023-07-30T21:50:59;3.80;;;1.90;;
40793;SDS011;26502;51.886;15.604;2023-07-30T21:56:03;4.40;;;2.20;;
40793;SDS011;26502;51.886;15.604;2023-07-30T22:01:06;3.70;;;2.40;;
40793;SDS011;26502;51.886;15.604;2023-07-30T22:06:10;5.30;;;2.30;;
40793;SDS011;26502;51.886;15.604;2023-07-30T22:11:14;6.10;;;2.50;;
40793;SDS011;26502;51.886;15.604;2023-07-30T22:16:17;3.30;;;2.10;;
40793;SDS011;26502;51.886;15.604;2023-07-30T22:21:20;5.90;;;2.60;;
40793;SDS011;26502;51.886;15.604;2023-07-30T22:26:24;4.10;;;2.30;;
40793;SDS011;26502;51.886;15.604;2023-07-30T22:31:27;2.80;;;2.10;;
40793;SDS011;26502;51.886;15.604;2023-07-30T22:36:30;5.10;;;2.30;;
40793;SDS011;26502;51.886;15.604;2023-07-30T22:41:34;2.50;;;1.80;;
40793;SDS011;26502;51.886;15.604;2023-07-30T22:46:37;3.70;;;2.10;;
40793;SDS011;26502;51.886;15.604;2023-07-30T22:51:41;4.70;;;2.10;;
40793;SDS011;26502;51.886;15.604;2023-07-30T22:56:44;4.60;;;2.20;;
40793;SDS011;26502;51.886;15.604;2023-07-30T23:01:47;5.50;;;2.00;;
40793;SDS011;26502;51.886;15.604;2023-07-30T23:06:51;6.30;;;2.90;;
40793;SDS011;26502;51.886;15.604;2023-07-30T23:11:55;4.30;;;2.20;;
40793;SDS011;26502;51.886;15.604;2023-07-30T23:16:59;5.90;;;2.70;;
40793;SDS011;26502;51.886;15.604;2023-07-30T23:22:02;2.80;;;2.50;;
40793;SDS011;26502;51.886;15.604;2023-07-30T23:27:06;3.20;;;2.30;;
40793;SDS011;26502;51.886;15.604;2023-07-30T23:32:09;3.00;;;2.20;;
40793;SDS011;26502;51.886;15.604;2023-07-30T23:37:13;2.80;;;2.10;;
40793;SDS011;26502;51.886;15.604;2023-07-30T23:42:16;3.70;;;2.10;;
40793;SDS011;26502;51.886;15.604;2023-07-30T23:47:19;3.30;;;2.00;;
40793;SDS011;26502;51.886;15.604;2023-07-30T23:52:23;3.90;;;1.90;;
40793;SDS011;26502;51.886;15.604;2023-07-30T23:57:26;4.40;;;2.30;;
